Time;durP1;ratioP1;P1;durP2;ratioP2;P2;SDS_P1;SDS_P2;PMS_P1;PMS_P2;Temp;Humidity;BMP_temperature;BMP_pressure;BME280_temperature;BME280_humidity;BME280_pressure;Samples;Min_cycle;Max_cycle;Signal;HPM_P1;HPM_P2
2024/04/21 00:00:19;;;;;;;2.25;1.17;;;3.30;99.90;;;;;;2257695;26;20227;-72
2024/04/21 00:01:20;;;;;;;1.60;1.10;;;3.30;99.90;;;;;;2245161;26;21267;-73
2024/04/21 00:02:21;;;;;;;1.10;1.03;;;3.30;99.90;;;;;;2250738;26;20272;-73
2024/04/21 00:03:22;;;;;;;1.83;1.73;;;3.20;99.90;;;;;;2229878;26;20859;-73
2024/04/21 00:04:24;;;;;;;2.27;1.40;;;3.20;99.90;;;;;;2230738;26;20306;-72
2024/04/21 00:05:24;;;;;;;1.25;1.13;;;3.20;99.90;;;;;;2245823;26;20264;-72
2024/04/21 00:06:25;;;;;;;1.33;1.20;;;3.30;99.90;;;;;;2245097;26;20311;-72
2024/04/21 00:07:26;;;;;;;1.57;1.23;;;3.30;99.90;;;;;;2245247;26;20260;-71
2024/04/21 00:08:26;;;;;;;1.30;1.20;;;3.30;99.90;;;;;;2249578;26;20317;-71
2024/04/21 00:09:27;;;;;;;1.27;1.17;;;3.40;99.90;;;;;;2243059;26;20648;-71
2024/04/21 00:10:28;;;;;;;1.30;1.20;;;3.40;99.90;;;;;;2244358;26;20263;-71
2024/04/21 00:11:29;;;;;;;1.10;1.00;;;3.40;99.90;;;;;;2234648;26;20393;-71
2024/04/21 00:12:30;;;;;;;2.33;1.40;;;3.40;99.90;;;;;;2244900;26;20264;-73
2024/04/21 00:13:30;;;;;;;3.27;1.23;;;3.40;99.90;;;;;;2243062;26;20338;-70
2024/04/21 00:14:31;;;;;;;1.33;1.00;;;3.40;99.90;;;;;;2248002;26;20977;-71
2024/04/21 00:15:32;;;;;;;2.00;1.00;;;3.40;99.90;;;;;;2236199;26;20265;-70
2024/04/21 00:16:32;;;;;;;1.70;1.30;;;3.50;99.90;;;;;;2229845;26;20271;-70
2024/04/21 00:17:35;;;;;;;1.60;1.13;;;3.50;99.90;;;;;;2247714;26;20275;-70
2024/04/21 00:18:35;;;;;;;1.42;1.10;;;3.50;99.90;;;;;;2244127;26;20312;-71
2024/04/21 00:19:36;;;;;;;1.50;1.20;;;3.50;99.90;;;;;;2250001;26;20298;-70
2024/04/21 00:20:37;;;;;;;2.40;1.40;;;3.50;99.90;;;;;;2229851;26;20373;-70
2024/04/21 00:21:37;;;;;;;1.77;1.40;;;3.60;99.90;;;;;;2249510;26;20268;-70
2024/04/21 00:22:38;;;;;;;2.50;1.30;;;3.60;99.90;;;;;;2245805;26;20316;-70
2024/04/21 00:23:39;;;;;;;3.87;1.20;;;3.50;99.90;;;;;;2249154;26;20267;-70
2024/04/21 00:24:40;;;;;;;1.73;1.10;;;3.40;99.90;;;;;;2251223;26;21081;-71
2024/04/21 00:25:40;;;;;;;1.50;1.10;;;3.30;99.90;;;;;;2229795;26;20269;-70
2024/04/21 00:26:41;;;;;;;2.80;1.10;;;3.40;99.90;;;;;;2229923;26;20277;-71
2024/04/21 00:27:42;;;;;;;1.57;1.40;;;3.40;99.90;;;;;;2229498;26;20673;-70
2024/04/21 00:28:46;;;;;;;1.50;1.40;;;3.40;99.90;;;;;;2244473;26;20381;-72
2024/04/21 00:29:46;;;;;;;1.50;1.40;;;3.40;99.90;;;;;;2251543;26;20635;-72
2024/04/21 00:30:47;;;;;;;4.73;1.80;;;3.40;99.90;;;;;;2236438;26;20266;-72
2024/04/21 00:31:48;;;;;;;1.40;1.30;;;3.40;99.90;;;;;;2235227;26;20828;-72
2024/04/21 00:32:48;;;;;;;1.90;1.60;;;3.40;99.90;;;;;;2230178;26;20273;-72
2024/04/21 00:33:49;;;;;;;1.97;1.70;;;3.40;99.90;;;;;;2246754;26;20747;-72
2024/04/21 00:34:50;;;;;;;2.10;1.53;;;3.40;99.90;;;;;;2233636;26;20303;-72
2024/04/21 00:35:50;;;;;;;1.77;1.57;;;3.30;99.90;;;;;;2208530;26;20270;-72
2024/04/21 00:36:51;;;;;;;2.00;1.70;;;3.30;99.90;;;;;;2214590;26;20341;-72
2024/04/21 00:37:52;;;;;;;2.83;1.50;;;3.30;99.90;;;;;;2221371;26;20312;-72
2024/04/21 00:38:52;;;;;;;1.77;1.50;;;3.20;99.90;;;;;;2236255;26;20384;-72
2024/04/21 00:39:53;;;;;;;2.67;1.80;;;3.20;99.90;;;;;;2221330;26;20268;-72
2024/04/21 00:40:53;;;;;;;1.80;1.60;;;3.20;99.90;;;;;;2221524;26;20624;-72
2024/04/21 00:41:54;;;;;;;1.50;1.30;;;3.20;99.90;;;;;;2251250;26;20267;-72
2024/04/21 00:42:58;;;;;;;1.77;1.63;;;3.20;99.90;;;;;;2231907;26;20272;-72
2024/04/21 00:43:59;;;;;;;2.17;1.48;;;3.20;99.90;;;;;;2236318;26;20268;-72
2024/04/21 00:45:00;;;;;;;2.38;1.58;;;3.20;99.90;;;;;;2236080;26;20268;-71
2024/04/21 00:46:02;;;;;;;1.63;1.53;;;3.20;99.90;;;;;;2250545;26;20241;-72
2024/04/21 00:47:03;;;;;;;2.55;1.77;;;3.20;99.90;;;;;;2235777;26;20248;-71
2024/04/21 00:48:06;;;;;;;3.10;1.88;;;3.20;99.90;;;;;;2218957;26;20242;-71
2024/04/21 00:49:07;;;;;;;2.20;1.95;;;3.20;99.90;;;;;;2234253;26;20322;-71
2024/04/21 00:50:08;;;;;;;2.25;1.85;;;3.10;99.90;;;;;;2249458;26;20696;-71
2024/04/21 00:51:09;;;;;;;2.97;1.97;;;3.00;99.90;;;;;;2243413;26;20232;-71
2024/04/21 00:52:10;;;;;;;3.03;2.10;;;2.90;99.90;;;;;;2228069;26;20255;-71
2024/04/21 00:53:13;;;;;;;2.67;2.03;;;2.80;99.90;;;;;;2236392;26;20286;-71
2024/04/21 00:54:15;;;;;;;2.13;1.92;;;2.70;99.90;;;;;;2236491;26;20340;-72
2024/04/21 00:55:15;;;;;;;2.38;2.13;;;2.60;99.90;;;;;;2236373;26;20219;-71
2024/04/21 00:56:19;;;;;;;1.90;1.70;;;2.60;99.90;;;;;;2245992;26;20773;-72
2024/04/21 00:57:20;;;;;;;3.45;2.28;;;2.60;99.90;;;;;;2244037;26;20569;-71
2024/04/21 00:58:22;;;;;;;2.67;2.15;;;2.60;99.90;;;;;;2229993;26;22166;-70
2024/04/21 00:59:23;;;;;;;4.05;2.40;;;2.60;99.90;;;;;;2221749;26;20294;-71
2024/04/21 01:00:24;;;;;;;2.83;2.10;;;2.70;99.90;;;;;;2222119;26;20777;-70
2024/04/21 01:01:24;;;;;;;2.28;1.90;;;2.70;99.90;;;;;;2234853;26;20501;-69
2024/04/21 01:02:25;;;;;;;2.93;2.43;;;2.80;99.90;;;;;;2227491;26;21039;-70
2024/04/21 01:03:26;;;;;;;2.13;1.90;;;2.90;99.90;;;;;;2228593;26;20263;-70
2024/04/21 01:04:29;;;;;;;3.05;2.10;;;2.90;99.90;;;;;;2231272;26;20319;-70
2024/04/21 01:05:30;;;;;;;3.30;2.47;;;3.00;99.90;;;;;;2221089;26;20279;-70
2024/04/21 01:06:31;;;;;;;4.93;2.30;;;3.00;99.90;;;;;;2235092;26;20736;-70
2024/04/21 01:07:32;;;;;;;4.10;2.37;;;3.10;99.90;;;;;;2249810;26;20274;-70
2024/04/21 01:08:32;;;;;;;3.57;2.17;;;3.10;99.90;;;;;;2223890;26;20269;-70
2024/04/21 01:09:33;;;;;;;5.23;2.90;;;3.10;99.90;;;;;;2235155;26;20320;-70
2024/04/21 01:10:34;;;;;;;4.73;2.80;;;3.00;99.90;;;;;;2249643;26;20309;-70
2024/04/21 01:11:45;;;;;;;5.07;2.27;;;3.00;99.90;;;;;;2219968;26;20864;-69
2024/04/21 01:12:46;;;;;;;4.22;2.42;;;3.10;99.90;;;;;;2237375;26;20656;-70
2024/04/21 01:13:47;;;;;;;2.93;2.57;;;3.10;99.90;;;;;;2249960;26;20420;-69
2024/04/21 01:14:48;;;;;;;3.20;2.35;;;3.10;99.90;;;;;;2246049;26;20263;-72
2024/04/21 01:15:52;;;;;;;3.13;2.83;;;3.10;99.90;;;;;;2243769;26;20305;-71
2024/04/21 01:16:53;;;;;;;5.93;3.10;;;3.10;99.90;;;;;;2243801;26;20323;-72
2024/04/21 01:17:53;;;;;;;7.67;3.27;;;3.20;99.90;;;;;;2247784;26;20314;-71
2024/04/21 01:18:54;;;;;;;5.17;2.60;;;3.20;99.90;;;;;;2244779;26;20358;-71
2024/04/21 01:19:55;;;;;;;3.53;2.67;;;3.20;99.90;;;;;;2244373;26;20738;-72
2024/04/21 01:20:55;;;;;;;4.87;3.10;;;3.30;99.90;;;;;;2244906;26;20263;-69
2024/04/21 01:21:56;;;;;;;4.77;2.73;;;3.30;99.90;;;;;;2246692;26;20739;-70
2024/04/21 01:22:56;;;;;;;3.57;2.83;;;3.30;99.90;;;;;;2231499;26;20267;-70
2024/04/21 01:23:57;;;;;;;4.70;2.90;;;3.20;99.90;;;;;;2244492;26;20271;-71
2024/04/21 01:24:58;;;;;;;4.37;2.70;;;3.20;99.90;;;;;;2234823;26;20872;-71
2024/04/21 01:25:59;;;;;;;3.40;2.90;;;3.20;99.90;;;;;;2235481;26;20760;-71
2024/04/21 01:26:59;;;;;;;3.57;2.80;;;3.20;99.90;;;;;;2235551;26;20317;-71
2024/04/21 01:28:00;;;;;;;3.20;2.90;;;3.10;99.90;;;;;;2234462;26;21022;-71
2024/04/21 01:29:01;;;;;;;3.33;2.93;;;3.10;99.90;;;;;;2232428;26;20316;-69
2024/04/21 01:30:02;;;;;;;5.47;3.03;;;3.10;99.90;;;;;;2214677;26;20301;-70
2024/04/21 01:31:03;;;;;;;4.05;3.40;;;3.10;99.90;;;;;;2224653;26;20237;-70
2024/04/21 01:32:04;;;;;;;7.10;3.50;;;3.10;99.90;;;;;;2244524;26;20337;-70
2024/04/21 01:33:05;;;;;;;6.57;3.47;;;3.00;99.90;;;;;;2248912;26;20760;-70
2024/04/21 01:34:05;;;;;;;4.43;3.33;;;3.00;99.90;;;;;;2235688;26;20308;-69
2024/04/21 01:35:06;;;;;;;3.97;3.20;;;2.80;99.90;;;;;;2227067;26;20349;-69
2024/04/21 01:36:07;;;;;;;4.57;3.27;;;2.70;99.90;;;;;;2228177;26;20281;-69
2024/04/21 01:37:08;;;;;;;3.90;3.33;;;2.70;99.90;;;;;;2219302;26;20237;-70
2024/04/21 01:38:08;;;;;;;5.13;3.00;;;2.70;99.90;;;;;;2234381;26;20988;-70
2024/04/21 01:39:09;;;;;;;4.97;2.93;;;2.80;99.90;;;;;;2245534;26;20246;-70
2024/04/21 01:40:11;;;;;;;3.60;3.17;;;2.80;99.90;;;;;;2219024;26;20240;-70
2024/04/21 01:41:11;;;;;;;5.72;3.20;;;2.90;99.90;;;;;;2219980;26;20332;-70
2024/04/21 01:42:12;;;;;;;6.33;3.57;;;2.90;99.90;;;;;;2233714;26;20319;-70
2024/04/21 01:43:13;;;;;;;5.50;3.63;;;2.90;99.90;;;;;;2242790;26;20296;-70
2024/04/21 01:44:13;;;;;;;4.23;2.80;;;3.00;99.90;;;;;;2243591;26;20266;-70
2024/04/21 01:45:14;;;;;;;3.97;3.33;;;2.90;99.90;;;;;;2250497;26;20343;-69
2024/04/21 01:46:15;;;;;;;6.13;3.83;;;2.90;99.90;;;;;;2243246;26;20274;-70
2024/04/21 01:47:15;;;;;;;6.33;3.20;;;2.90;99.90;;;;;;2216962;26;20724;-69
2024/04/21 01:48:16;;;;;;;4.83;3.47;;;2.90;99.90;;;;;;2220363;26;20271;-70
2024/04/21 01:49:17;;;;;;;6.20;3.63;;;2.80;99.90;;;;;;2234907;26;20711;-70
2024/04/21 01:50:17;;;;;;;7.70;3.43;;;2.70;99.90;;;;;;2234862;26;20216;-71
2024/04/21 01:51:18;;;;;;;7.43;3.40;;;2.60;99.90;;;;;;2227697;26;20272;-70
2024/04/21 01:52:19;;;;;;;5.60;3.00;;;2.60;99.90;;;;;;2233632;26;20259;-70
2024/04/21 01:53:19;;;;;;;4.00;3.17;;;2.70;99.90;;;;;;2248906;26;20392;-70
2024/04/21 01:54:20;;;;;;;5.50;2.90;;;2.70;99.90;;;;;;2243946;26;20980;-70
2024/04/21 01:55:21;;;;;;;4.67;3.40;;;2.70;99.90;;;;;;2250075;26;20344;-70
2024/04/21 01:56:22;;;;;;;6.30;3.40;;;2.70;99.90;;;;;;2230970;26;20299;-69
2024/04/21 01:57:22;;;;;;;4.43;3.23;;;2.70;99.90;;;;;;2228646;26;20264;-71
2024/04/21 01:58:23;;;;;;;5.40;3.23;;;2.60;99.90;;;;;;2248623;26;20785;-72
2024/04/21 01:59:24;;;;;;;5.10;3.20;;;2.70;99.90;;;;;;2226899;26;20279;-71
2024/04/21 02:00:24;;;;;;;3.80;3.40;;;2.70;99.90;;;;;;2247426;26;20270;-71
2024/04/21 02:01:25;;;;;;;5.07;3.93;;;2.70;99.90;;;;;;2256638;26;20269;-72
2024/04/21 02:02:26;;;;;;;5.37;3.63;;;2.70;99.90;;;;;;2246744;26;20271;-71
2024/04/21 02:03:26;;;;;;;6.17;3.63;;;2.70;99.90;;;;;;2230471;26;20365;-71
2024/04/21 02:04:29;;;;;;;4.87;3.43;;;2.70;99.90;;;;;;2220480;26;20273;-71
2024/04/21 02:05:30;;;;;;;4.55;3.15;;;2.70;99.90;;;;;;2234454;26;20374;-71
2024/04/21 02:06:31;;;;;;;8.53;3.40;;;2.70;99.90;;;;;;2236403;26;20276;-71
2024/04/21 02:07:31;;;;;;;4.67;3.20;;;2.70;99.90;;;;;;2248971;26;20270;-72
2024/04/21 02:08:32;;;;;;;3.33;3.03;;;2.80;99.90;;;;;;2249861;26;20793;-71
2024/04/21 02:09:33;;;;;;;5.50;3.30;;;2.70;99.90;;;;;;2234659;26;20744;-71
2024/04/21 02:10:34;;;;;;;4.70;3.30;;;2.70;99.90;;;;;;2234568;26;20283;-71
2024/04/21 02:11:34;;;;;;;4.23;3.33;;;2.70;99.90;;;;;;2235328;26;20326;-71
2024/04/21 02:12:35;;;;;;;5.27;3.10;;;2.70;99.90;;;;;;2243353;26;20868;-71
2024/04/21 02:13:36;;;;;;;5.80;3.10;;;2.70;99.90;;;;;;2249302;26;20370;-72
2024/04/21 02:14:36;;;;;;;4.87;3.57;;;2.70;99.90;;;;;;2249372;26;20304;-72
2024/04/21 02:15:37;;;;;;;6.60;3.30;;;2.80;99.90;;;;;;2246256;26;20661;-71
2024/04/21 02:16:38;;;;;;;5.00;3.40;;;2.80;99.90;;;;;;2247393;26;20416;-71
2024/04/21 02:17:39;;;;;;;6.43;3.30;;;2.70;99.90;;;;;;2234201;26;20313;-72
2024/04/21 02:18:40;;;;;;;5.03;3.20;;;2.70;99.90;;;;;;2249255;26;20304;-72
2024/04/21 02:19:41;;;;;;;5.63;3.40;;;2.80;99.90;;;;;;2245769;26;20270;-71
2024/04/21 02:20:44;;;;;;;2.93;2.63;;;2.80;99.90;;;;;;2241821;26;20323;-72
2024/04/21 02:21:45;;;;;;;5.20;3.28;;;2.80;99.90;;;;;;2214121;26;20277;-71
2024/04/21 02:22:46;;;;;;;7.10;3.40;;;2.80;99.90;;;;;;2231374;26;20748;-72
2024/04/21 02:23:49;;;;;;;4.70;3.13;;;2.80;99.90;;;;;;2230621;26;20317;-72
2024/04/21 02:24:50;;;;;;;4.43;3.22;;;2.80;99.90;;;;;;2220384;26;20621;-72
2024/04/21 02:26:00;;;;;;;5.47;2.83;;;2.70;99.90;;;;;;2220199;26;20356;-71
2024/04/21 02:27:01;;;;;;;4.60;3.70;;;2.70;99.90;;;;;;2210133;26;20254;-70
2024/04/21 02:28:02;;;;;;;4.67;3.17;;;2.60;99.90;;;;;;2234152;26;20363;-72
2024/04/21 02:29:03;;;;;;;4.33;2.97;;;2.60;99.90;;;;;;2248890;26;20329;-72
2024/04/21 02:30:04;;;;;;;4.67;2.77;;;2.60;99.90;;;;;;2234762;26;20803;-71
2024/04/21 02:31:05;;;;;;;5.07;3.60;;;2.60;99.90;;;;;;2233135;26;20276;-71
2024/04/21 02:32:06;;;;;;;4.37;3.50;;;2.70;99.90;;;;;;2212356;26;20284;-72
2024/04/21 02:33:06;;;;;;;3.47;2.93;;;2.70;99.90;;;;;;2227273;26;20279;-72
2024/04/21 02:34:07;;;;;;;3.37;2.90;;;2.70;99.90;;;;;;2248824;26;20824;-71
2024/04/21 02:35:08;;;;;;;6.80;3.47;;;2.70;99.90;;;;;;2234147;26;20240;-71
2024/04/21 02:36:08;;;;;;;5.07;2.80;;;2.70;99.90;;;;;;2217684;26;20241;-71
2024/04/21 02:37:09;;;;;;;3.80;3.30;;;2.70;99.90;;;;;;2231240;26;20236;-72
2024/04/21 02:38:12;;;;;;;4.43;3.20;;;2.70;99.90;;;;;;2232944;26;20271;-71
2024/04/21 02:39:12;;;;;;;6.40;3.67;;;2.80;99.90;;;;;;2220007;26;20233;-71
2024/04/21 02:40:13;;;;;;;3.53;2.93;;;2.80;99.90;;;;;;2233091;26;20294;-71
2024/04/21 02:41:14;;;;;;;4.32;3.10;;;2.80;99.90;;;;;;2238129;26;20233;-71
2024/04/21 02:42:15;;;;;;;4.20;3.20;;;2.70;99.90;;;;;;2221956;26;20214;-71
2024/04/21 02:43:16;;;;;;;4.97;3.20;;;2.60;99.90;;;;;;2203358;26;20377;-71
2024/04/21 02:44:16;;;;;;;4.17;3.10;;;2.70;99.90;;;;;;2214711;26;20820;-72
2024/04/21 02:45:17;;;;;;;5.17;3.80;;;2.70;99.90;;;;;;2220087;26;20229;-71
2024/04/21 02:46:20;;;;;;;3.90;3.20;;;2.60;99.90;;;;;;2236734;26;20224;-70
2024/04/21 02:47:21;;;;;;;4.43;3.00;;;2.50;99.90;;;;;;2235491;26;20268;-71
2024/04/21 02:48:22;;;;;;;6.43;3.43;;;2.60;99.90;;;;;;2243153;26;20272;-72
2024/04/21 02:49:23;;;;;;;4.37;3.60;;;2.60;99.90;;;;;;2250345;26;20404;-71
2024/04/21 02:50:23;;;;;;;3.33;3.03;;;2.60;99.90;;;;;;2251675;26;20390;-71
2024/04/21 02:51:24;;;;;;;4.47;3.20;;;2.70;99.90;;;;;;2243852;26;20746;-71
2024/04/21 02:52:25;;;;;;;4.00;3.20;;;2.60;99.90;;;;;;2244186;26;20786;-71
2024/04/21 02:53:26;;;;;;;4.27;3.47;;;2.60;99.90;;;;;;2244095;26;20267;-71
2024/04/21 02:54:26;;;;;;;4.47;3.23;;;2.60;99.90;;;;;;2250722;26;20404;-72
2024/04/21 02:55:27;;;;;;;5.47;3.30;;;2.60;99.90;;;;;;2236642;26;20345;-71
2024/04/21 02:56:27;;;;;;;4.67;2.77;;;2.70;99.90;;;;;;2250572;26;20308;-71
2024/04/21 02:57:28;;;;;;;6.43;3.43;;;2.70;99.90;;;;;;2248944;26;20314;-71
2024/04/21 02:58:29;;;;;;;6.30;3.10;;;2.60;99.90;;;;;;2236011;26;20309;-71
2024/04/21 02:59:29;;;;;;;4.43;3.10;;;2.60;99.90;;;;;;2235237;26;20651;-71
2024/04/21 03:00:30;;;;;;;6.40;3.50;;;2.60;99.90;;;;;;2250735;26;20371;-70
2024/04/21 03:01:31;;;;;;;3.80;3.00;;;2.60;99.90;;;;;;2250104;26;20321;-70
2024/04/21 03:02:32;;;;;;;5.30;3.07;;;2.60;99.90;;;;;;2244161;26;20278;-71
2024/04/21 03:03:32;;;;;;;6.13;3.33;;;2.50;99.90;;;;;;2235717;26;20713;-69
2024/04/21 03:04:34;;;;;;;5.97;3.40;;;2.40;99.90;;;;;;2222125;26;20381;-70
2024/04/21 03:05:35;;;;;;;4.50;3.42;;;2.40;99.90;;;;;;2235637;26;20353;-70
2024/04/21 03:06:35;;;;;;;4.70;3.53;;;2.40;99.90;;;;;;2250810;26;20692;-69
2024/04/21 03:07:36;;;;;;;3.87;3.20;;;2.30;99.90;;;;;;2250164;26;20379;-69
2024/04/21 03:08:37;;;;;;;5.27;3.37;;;2.30;99.90;;;;;;2236550;26;20431;-69
2024/04/21 03:09:41;;;;;;;5.17;3.50;;;2.30;99.90;;;;;;2230146;26;20267;-70
2024/04/21 03:10:45;;;;;;;4.43;3.72;;;2.40;99.90;;;;;;2222419;26;20272;-71
2024/04/21 03:11:46;;;;;;;4.97;3.03;;;2.40;99.90;;;;;;2215997;26;20314;-71
2024/04/21 03:12:47;;;;;;;4.87;3.50;;;2.40;99.90;;;;;;2237309;26;20852;-71
2024/04/21 03:13:47;;;;;;;6.13;3.47;;;2.50;99.90;;;;;;2248225;26;20269;-71
2024/04/21 03:14:48;;;;;;;7.60;3.33;;;2.50;99.90;;;;;;2229975;26;21018;-71
2024/04/21 03:15:49;;;;;;;4.57;3.37;;;2.50;99.90;;;;;;2218262;26;20269;-71
2024/04/21 03:16:50;;;;;;;7.13;3.63;;;2.60;99.90;;;;;;2234106;26;20741;-71
2024/04/21 03:17:50;;;;;;;5.00;3.50;;;2.60;99.90;;;;;;2220755;26;20277;-70
2024/04/21 03:18:51;;;;;;;5.40;3.60;;;2.50;99.90;;;;;;2235705;26;20304;-71
2024/04/21 03:19:52;;;;;;;4.63;3.47;;;2.50;99.90;;;;;;2246043;26;20266;-70
2024/04/21 03:20:57;;;;;;;6.47;3.93;;;2.50;99.90;;;;;;2244163;26;20274;-71
2024/04/21 03:21:57;;;;;;;5.05;3.67;;;2.50;99.90;;;;;;2233652;26;20281;-70
2024/04/21 03:22:58;;;;;;;4.10;3.33;;;2.50;99.90;;;;;;2235007;26;20273;-70
2024/04/21 03:23:59;;;;;;;6.40;3.90;;;2.50;99.90;;;;;;2244493;26;20319;-70
2024/04/21 03:25:01;;;;;;;4.43;2.80;;;2.40;99.90;;;;;;2250408;26;20611;-71
2024/04/21 03:26:01;;;;;;;6.00;3.13;;;2.40;99.90;;;;;;2234290;26;20275;-69
2024/04/21 03:27:02;;;;;;;7.80;3.53;;;2.50;99.90;;;;;;2243376;26;20236;-71
2024/04/21 03:28:03;;;;;;;7.90;3.87;;;2.60;99.90;;;;;;2244670;26;20241;-72
2024/04/21 03:29:04;;;;;;;6.23;3.43;;;2.70;99.90;;;;;;2235369;26;20239;-72
2024/04/21 03:30:05;;;;;;;5.40;3.30;;;2.70;99.90;;;;;;2235361;26;20236;-70
2024/04/21 03:31:06;;;;;;;4.25;3.25;;;2.70;99.90;;;;;;2242079;26;20727;-70
2024/04/21 03:32:06;;;;;;;4.60;3.27;;;2.70;99.90;;;;;;2258879;26;20270;-71
2024/04/21 03:33:08;;;;;;;4.40;3.20;;;2.80;99.90;;;;;;2258352;26;20286;-71
2024/04/21 03:34:09;;;;;;;4.78;3.28;;;2.80;99.90;;;;;;2243082;26;20303;-70
2024/04/21 03:35:09;;;;;;;6.87;3.43;;;2.80;99.90;;;;;;2243613;26;20337;-70
2024/04/21 03:36:10;;;;;;;5.37;3.57;;;2.90;99.90;;;;;;2249464;26;20708;-73
2024/04/21 03:37:11;;;;;;;6.47;3.60;;;2.90;99.90;;;;;;2244104;26;20262;-70
2024/04/21 03:38:12;;;;;;;6.80;3.72;;;2.90;99.90;;;;;;2234486;26;20608;-70
2024/04/21 03:39:13;;;;;;;4.87;3.27;;;2.90;99.90;;;;;;2221027;26;20234;-70
2024/04/21 03:40:14;;;;;;;4.32;3.60;;;2.90;99.90;;;;;;2249357;26;20263;-70
2024/04/21 03:41:15;;;;;;;6.87;3.33;;;2.90;99.90;;;;;;2244233;26;20231;-70
2024/04/21 03:42:16;;;;;;;7.75;4.20;;;3.00;99.90;;;;;;2243926;26;20232;-70
2024/04/21 03:43:17;;;;;;;8.10;3.83;;;2.90;99.90;;;;;;2244801;26;20814;-69
2024/04/21 03:44:17;;;;;;;4.93;3.70;;;2.80;99.90;;;;;;2246272;26;20219;-70
2024/04/21 03:45:18;;;;;;;6.37;4.20;;;2.80;99.90;;;;;;2244307;26;20699;-70
2024/04/21 03:46:19;;;;;;;7.47;3.57;;;2.70;99.90;;;;;;2252770;26;20264;-70
2024/04/21 03:47:20;;;;;;;6.20;3.80;;;2.70;99.90;;;;;;2244658;26;20226;-70
2024/04/21 03:48:21;;;;;;;8.17;3.93;;;2.60;99.90;;;;;;2250493;26;20257;-70
2024/04/21 03:49:22;;;;;;;6.53;3.88;;;2.60;99.90;;;;;;2235484;26;20333;-70
2024/04/21 03:50:23;;;;;;;6.87;3.07;;;2.60;99.90;;;;;;2250111;26;20255;-70
2024/04/21 03:51:23;;;;;;;5.67;4.20;;;2.60;99.90;;;;;;2234900;26;20300;-70
2024/04/21 03:52:24;;;;;;;8.37;3.93;;;2.50;99.90;;;;;;2236801;26;20268;-71
2024/04/21 03:53:25;;;;;;;7.10;4.00;;;2.40;99.90;;;;;;2251400;26;20336;-71
2024/04/21 03:54:25;;;;;;;7.93;3.30;;;2.30;99.90;;;;;;2245038;26;20764;-71
2024/04/21 03:55:26;;;;;;;4.07;2.87;;;2.30;99.90;;;;;;2244192;26;20268;-71
2024/04/21 03:56:27;;;;;;;5.30;3.47;;;2.50;99.90;;;;;;2249751;26;20340;-70
2024/04/21 03:57:30;;;;;;;7.23;4.00;;;2.50;99.90;;;;;;2243667;26;20267;-71
2024/04/21 03:58:31;;;;;;;6.13;3.45;;;2.50;99.90;;;;;;2250261;26;20294;-70
2024/04/21 03:59:32;;;;;;;7.53;3.50;;;2.60;99.90;;;;;;2250677;26;20671;-71
2024/04/21 04:00:33;;;;;;;5.07;3.53;;;2.60;99.90;;;;;;2249970;26;20267;-71
2024/04/21 04:01:34;;;;;;;5.57;3.70;;;2.60;99.90;;;;;;2250022;26;20318;-71
2024/04/21 04:02:34;;;;;;;7.30;3.50;;;2.70;99.90;;;;;;2248677;26;20352;-71
2024/04/21 04:03:39;;;;;;;5.43;3.27;;;2.70;99.90;;;;;;2230685;26;20303;-71
2024/04/21 04:04:40;;;;;;;4.97;3.33;;;2.80;99.90;;;;;;2244894;26;20304;-70
2024/04/21 04:05:45;;;;;;;6.27;3.17;;;2.70;99.90;;;;;;2249258;26;20860;-70
2024/04/21 04:06:46;;;;;;;5.03;3.05;;;2.80;99.90;;;;;;2243853;26;20634;-71
2024/04/21 04:07:47;;;;;;;6.43;3.10;;;2.80;99.90;;;;;;2245771;26;20305;-70
2024/04/21 04:08:47;;;;;;;3.73;3.07;;;2.90;99.90;;;;;;2250425;26;20301;-70
2024/04/21 04:09:48;;;;;;;6.73;3.20;;;2.90;99.90;;;;;;2251032;26;20271;-70
2024/04/21 04:10:49;;;;;;;5.67;3.60;;;2.90;99.90;;;;;;2249488;26;20355;-71
2024/04/21 04:11:50;;;;;;;6.40;4.70;;;2.80;99.90;;;;;;2250213;26;20736;-70
2024/04/21 04:12:51;;;;;;;4.78;3.65;;;2.70;99.90;;;;;;2244680;26;20268;-70
2024/04/21 04:13:51;;;;;;;7.17;4.20;;;2.70;99.90;;;;;;2249037;26;20654;-69
2024/04/21 04:14:52;;;;;;;8.93;3.73;;;2.60;99.90;;;;;;2250058;26;20358;-70
2024/04/21 04:15:53;;;;;;;12.38;6.95;;;2.60;99.90;;;;;;2249873;26;20267;-70
2024/04/21 04:16:54;;;;;;;7.17;5.73;;;2.50;99.90;;;;;;2250110;26;20628;-70
2024/04/21 04:17:55;;;;;;;10.53;5.30;;;2.50;99.90;;;;;;2244572;26;20265;-70
2024/04/21 04:18:55;;;;;;;8.60;4.80;;;2.60;99.90;;;;;;2246637;26;20309;-70
2024/04/21 04:19:56;;;;;;;7.37;4.17;;;2.60;99.90;;;;;;2246957;26;20327;-70
2024/04/21 04:20:57;;;;;;;15.00;7.00;;;2.60;99.90;;;;;;2250488;26;20322;-70
2024/04/21 04:21:57;;;;;;;11.60;5.87;;;2.60;99.90;;;;;;2242080;26;20311;-69
2024/04/21 04:22:58;;;;;;;13.23;6.93;;;2.70;99.90;;;;;;2238256;26;20283;-69
2024/04/21 04:23:59;;;;;;;14.43;6.50;;;2.80;99.90;;;;;;2246411;26;20267;-69
2024/04/21 04:24:59;;;;;;;7.13;3.87;;;2.80;99.90;;;;;;2248827;26;20650;-69
2024/04/21 04:26:00;;;;;;;10.87;6.23;;;2.80;99.90;;;;;;2249744;26;20493;-69
2024/04/21 04:27:01;;;;;;;8.97;5.27;;;2.70;99.90;;;;;;2247042;26;20240;-69
2024/04/21 04:28:02;;;;;;;13.67;5.80;;;2.70;99.90;;;;;;2245746;26;20345;-69
2024/04/21 04:29:03;;;;;;;12.87;6.60;;;2.50;99.90;;;;;;2234993;26;21132;-68
2024/04/21 04:30:04;;;;;;;13.53;7.27;;;2.50;99.90;;;;;;2235014;26;20221;-69
2024/04/21 04:31:05;;;;;;;13.77;7.85;;;2.50;99.90;;;;;;2220175;26;20250;-69
2024/04/21 04:32:06;;;;;;;11.93;6.67;;;2.60;99.90;;;;;;2235069;26;20224;-68
2024/04/21 04:33:07;;;;;;;7.67;5.10;;;2.70;99.90;;;;;;2244689;26;20248;-69
2024/04/21 04:34:07;;;;;;;10.73;6.40;;;2.70;99.90;;;;;;2242869;26;20305;-69
2024/04/21 04:35:08;;;;;;;16.17;7.60;;;2.70;99.90;;;;;;2241307;26;20237;-69
2024/04/21 04:36:09;;;;;;;9.00;4.97;;;2.70;99.90;;;;;;2240118;26;20236;-70
2024/04/21 04:37:09;;;;;;;8.53;4.57;;;2.60;99.90;;;;;;2243223;26;20229;-71
2024/04/21 04:38:10;;;;;;;5.73;3.57;;;2.60;99.90;;;;;;2243498;26;20282;-70
2024/04/21 04:39:11;;;;;;;6.80;3.30;;;2.50;99.90;;;;;;2243165;26;20278;-71
2024/04/21 04:40:12;;;;;;;7.23;4.00;;;2.40;99.90;;;;;;2235079;26;20762;-70
2024/04/21 04:41:12;;;;;;;8.97;3.63;;;2.40;99.90;;;;;;2235496;26;20342;-71
2024/04/21 04:42:13;;;;;;;5.60;4.37;;;2.40;99.90;;;;;;2243349;26;20287;-70
2024/04/21 04:43:14;;;;;;;6.13;3.17;;;2.30;99.90;;;;;;2243150;26;20213;-72
2024/04/21 04:44:15;;;;;;;6.10;4.07;;;2.40;99.90;;;;;;2243379;26;20538;-71
2024/04/21 04:45:17;;;;;;;7.73;4.27;;;2.30;99.90;;;;;;2245230;26;21242;-71
2024/04/21 04:46:18;;;;;;;4.90;3.65;;;2.30;99.90;;;;;;2243366;26;20273;-71
2024/04/21 04:47:19;;;;;;;7.27;4.40;;;2.20;99.90;;;;;;2249854;26;20256;-72
2024/04/21 04:48:20;;;;;;;4.72;3.28;;;2.30;99.90;;;;;;2244785;26;20317;-71
2024/04/21 04:49:20;;;;;;;4.27;3.17;;;2.30;99.90;;;;;;2244142;26;20710;-71
2024/04/21 04:50:21;;;;;;;10.03;4.77;;;2.30;99.90;;;;;;2243414;26;20326;-70
2024/04/21 04:51:22;;;;;;;6.47;4.67;;;2.20;99.90;;;;;;2242837;26;20401;-71
2024/04/21 04:52:22;;;;;;;7.27;4.03;;;2.30;99.90;;;;;;2234862;26;20838;-71
2024/04/21 04:53:23;;;;;;;4.80;3.73;;;2.30;99.90;;;;;;2220583;26;20269;-71
2024/04/21 04:54:24;;;;;;;7.63;3.63;;;2.40;99.90;;;;;;2235180;26;20282;-71
2024/04/21 04:55:24;;;;;;;7.17;3.90;;;2.40;99.90;;;;;;2234789;26;20265;-71
2024/04/21 04:56:25;;;;;;;5.10;3.70;;;2.40;99.90;;;;;;2243449;26;21096;-71
2024/04/21 04:57:26;;;;;;;6.57;3.57;;;2.40;99.90;;;;;;2234904;26;20745;-71
2024/04/21 04:58:27;;;;;;;7.30;3.67;;;2.50;99.90;;;;;;2235451;26;20317;-71
2024/04/21 04:59:27;;;;;;;6.90;4.67;;;2.60;99.90;;;;;;2244098;26;20318;-71
2024/04/21 05:00:28;;;;;;;4.17;3.60;;;2.60;99.90;;;;;;2251054;26;20263;-72
2024/04/21 05:01:29;;;;;;;7.83;3.30;;;2.60;99.90;;;;;;2244083;26;20269;-70
2024/04/21 05:02:30;;;;;;;4.70;3.87;;;2.60;99.90;;;;;;2243150;26;20314;-70
2024/04/21 05:03:30;;;;;;;5.90;4.07;;;2.60;99.90;;;;;;2244746;26;20268;-71
2024/04/21 05:04:31;;;;;;;6.90;4.10;;;2.60;99.90;;;;;;2236901;26;20318;-70
2024/04/21 05:05:32;;;;;;;5.07;3.57;;;2.60;99.90;;;;;;2248995;26;20318;-70
2024/04/21 05:06:33;;;;;;;4.90;3.60;;;2.70;99.90;;;;;;2245446;26;20280;-71
2024/04/21 05:07:35;;;;;;;8.50;3.97;;;2.80;99.90;;;;;;2228721;26;20277;-71
2024/04/21 05:08:35;;;;;;;7.63;3.92;;;2.80;99.90;;;;;;2239545;26;20270;-71
2024/04/21 05:09:36;;;;;;;5.20;3.70;;;2.80;99.90;;;;;;2250108;26;20278;-71
2024/04/21 05:10:37;;;;;;;7.60;4.70;;;2.80;99.90;;;;;;2247817;26;20309;-71
2024/04/21 05:11:39;;;;;;;6.40;3.83;;;2.70;99.90;;;;;;2247733;26;20258;-70
2024/04/21 05:12:39;;;;;;;5.82;4.20;;;2.60;99.90;;;;;;2247520;26;20703;-71
2024/04/21 05:13:40;;;;;;;8.23;3.80;;;2.70;99.90;;;;;;2243884;26;20310;-71
2024/04/21 05:14:42;;;;;;;5.97;3.40;;;2.70;99.90;;;;;;2242854;26;20734;-71
2024/04/21 05:15:43;;;;;;;8.02;3.95;;;2.70;99.90;;;;;;2227279;26;20368;-72
2024/04/21 05:16:45;;;;;;;7.53;4.57;;;2.70;99.90;;;;;;2218400;26;20721;-71
2024/04/21 05:17:45;;;;;;;5.35;3.42;;;2.70;99.90;;;;;;2246560;26;20266;-71
2024/04/21 05:18:46;;;;;;;5.30;4.27;;;2.70;99.90;;;;;;2248078;26;20277;-71
2024/04/21 05:19:47;;;;;;;6.40;4.13;;;2.80;99.90;;;;;;2242813;26;20458;-71
2024/04/21 05:20:47;;;;;;;4.90;3.20;;;2.70;99.90;;;;;;2233596;26;20272;-71
2024/04/21 05:21:48;;;;;;;6.30;4.17;;;2.70;99.90;;;;;;2233827;26;20362;-71